createdAt,value
2018-08-24T00:00:39.241Z,20.80
2018-08-24T00:03:22.560Z,20.90
2018-08-24T00:05:52.243Z,20.90
2018-08-24T00:08:21.199Z,20.90
2018-08-24T00:10:49.625Z,20.90
2018-08-24T00:13:18.947Z,20.90
2018-08-24T00:15:47.217Z,20.90
2018-08-24T00:18:15.443Z,20.90
2018-08-24T00:20:46.399Z,20.80
2018-08-24T00:23:16.118Z,20.70
2018-08-24T00:25:44.999Z,20.60
2018-08-24T00:31:38.685Z,20.50
2018-08-24T00:34:06.897Z,20.40
2018-08-24T00:36:35.488Z,20.30
2018-08-24T00:39:04.834Z,20.30
2018-08-24T00:48:38.593Z,20.40
2018-08-24T00:51:07.139Z,20.50
2018-08-24T00:53:37.630Z,20.50
2018-08-24T01:02:50.282Z,20.50
2018-08-24T01:05:19.506Z,20.50
2018-08-24T01:08:17.717Z,20.50
2018-08-24T01:10:46.821Z,20.50
2018-08-24T01:13:15.605Z,20.50
2018-08-24T01:15:57.733Z,20.40
2018-08-24T01:18:45.897Z,20.30
2018-08-24T01:21:14.220Z,20.30
2018-08-24T01:23:43.404Z,20.30
2018-08-24T01:26:11.703Z,20.30
2018-08-24T01:28:42.149Z,20.40
2018-08-24T01:31:10.418Z,20.50
2018-08-24T01:33:38.722Z,20.50
2018-08-24T01:36:09.384Z,20.50
2018-08-24T01:38:38.434Z,20.50
2018-08-24T01:41:07.010Z,20.50
2018-08-24T01:44:38.493Z,20.50
2018-08-24T01:47:08.659Z,20.50
2018-08-24T01:49:37.078Z,20.40
2018-08-24T01:52:06.008Z,20.30
2018-08-24T01:54:35.597Z,20.30
2018-08-24T01:57:03.739Z,20.20
2018-08-24T01:59:31.931Z,20.10
2018-08-24T02:02:00.105Z,20.20
2018-08-24T02:04:28.320Z,20.20
2018-08-24T02:06:56.511Z,20.10
2018-08-24T02:09:28.238Z,20.10
2018-08-24T02:11:56.431Z,20.10
2018-08-24T02:14:42.408Z,20.00
2018-08-24T02:17:28.364Z,19.90
2018-08-24T02:20:14.252Z,19.90
2018-08-24T02:22:42.429Z,19.80
2018-08-24T02:25:10.600Z,19.80
2018-08-24T02:27:38.754Z,19.90
2018-08-24T02:30:06.908Z,20.20
2018-08-24T02:32:35.085Z,20.30
2018-08-24T02:35:04.454Z,20.20
2018-08-24T02:37:32.613Z,20.20
2018-08-24T02:40:00.778Z,20.20
2018-08-24T02:42:28.944Z,20.10
2018-08-24T02:44:57.124Z,20.10
2018-08-24T02:47:25.275Z,20.00
2018-08-24T02:49:53.602Z,20.00
2018-08-24T02:52:24.053Z,20.00
2018-08-24T02:54:52.474Z,19.90
2018-08-24T02:57:21.062Z,19.70
2018-08-24T02:59:49.230Z,19.70
2018-08-24T03:02:19.091Z,19.70
2018-08-24T03:04:47.266Z,19.70
2018-08-24T03:07:15.427Z,19.60
2018-08-24T03:13:06.896Z,19.50
2018-08-24T03:21:55.300Z,19.50
2018-08-24T03:24:26.669Z,19.50
2018-08-24T03:26:54.841Z,19.50
2018-08-24T03:29:23.294Z,19.50
2018-08-24T03:31:51.676Z,19.40
2018-08-24T03:34:19.823Z,19.50
2018-08-24T03:36:48.994Z,19.60
2018-08-24T03:39:17.168Z,19.40
2018-08-24T03:41:45.603Z,19.40
2018-08-24T03:44:19.532Z,19.40
2018-08-24T03:46:48.091Z,19.50
2018-08-24T03:49:16.247Z,19.60
2018-08-24T03:51:44.410Z,19.60
2018-08-24T03:57:16.733Z,19.40
2018-08-24T04:00:46.573Z,19.30
2018-08-24T04:06:36.040Z,19.20
2018-08-24T04:09:05.425Z,19.20
2018-08-24T04:11:59.274Z,19.20
2018-08-24T04:14:05.095Z,19.30
2018-08-24T04:26:42.523Z,19.20
2018-08-24T04:29:10.966Z,19.40
2018-08-24T04:31:40.745Z,19.60
2018-08-24T04:34:08.936Z,19.70
2018-08-24T04:36:37.136Z,19.70
2018-08-24T04:39:09.919Z,20.00
2018-08-24T04:41:39.296Z,20.40
2018-08-24T04:44:07.682Z,20.50
2018-08-24T04:46:37.014Z,20.70
2018-08-24T04:49:05.300Z,21.20
2018-08-24T04:51:33.913Z,21.30
2018-08-24T04:54:02.423Z,21.40
2018-08-24T04:56:31.141Z,21.40
2018-08-24T04:59:00.653Z,21.20
2018-08-24T05:01:31.609Z,21.00
2018-08-24T05:04:00.719Z,20.90
2018-08-24T05:06:29.846Z,20.80
2018-08-24T05:08:58.977Z,20.70
2018-08-24T05:11:27.259Z,20.50
2018-08-24T05:13:55.605Z,20.30
2018-08-24T05:19:55.855Z,20.40
2018-08-24T05:25:45.632Z,21.00
2018-08-24T05:33:45.419Z,21.80
2018-08-24T05:36:28.760Z,22.10
2018-08-24T05:38:57.093Z,22.20
2018-08-24T05:41:27.622Z,22.00
2018-08-24T05:43:56.219Z,22.20
2018-08-24T05:49:28.240Z,22.20
2018-08-24T05:51:56.804Z,22.00
2018-08-24T05:54:25.020Z,21.90
2018-08-24T05:56:55.110Z,21.90
2018-08-24T05:59:23.624Z,22.20
2018-08-24T06:05:13.018Z,22.30
2018-08-24T06:07:41.783Z,22.50
2018-08-24T06:10:09.956Z,22.50
2018-08-24T06:26:04.703Z,22.60
2018-08-24T06:28:32.915Z,22.70
2018-08-24T06:31:01.116Z,22.80
2018-08-24T06:33:29.803Z,23.20
2018-08-24T06:35:59.061Z,23.50
2018-08-24T06:38:28.630Z,23.80
2018-08-24T06:40:57.267Z,23.90
2018-08-24T06:43:25.501Z,23.80
2018-08-24T06:52:39.379Z,24.10
2018-08-24T06:55:10.586Z,23.90
2018-08-24T06:58:11.573Z,23.90
2018-08-24T07:00:43.858Z,24.10
2018-08-24T07:06:33.970Z,24.00
2018-08-24T07:09:02.862Z,23.60
2018-08-24T07:11:43.394Z,23.60
2018-08-24T07:14:11.562Z,23.50
2018-08-24T07:16:39.706Z,23.50
2018-08-24T07:19:09.180Z,23.30
2018-08-24T07:24:58.989Z,23.00
2018-08-24T07:27:27.171Z,23.30
2018-08-24T07:29:55.389Z,23.60
2018-08-24T07:32:23.912Z,23.70
2018-08-24T07:34:52.404Z,23.90
2018-08-24T07:40:42.817Z,24.10
2018-08-24T07:46:51.361Z,26.50
2018-08-24T07:49:19.537Z,28.60
2018-08-24T07:55:24.762Z,28.50
2018-08-24T07:57:53.497Z,28.90
2018-08-24T08:00:34.006Z,29.60
2018-08-24T08:03:24.917Z,30.70
2018-08-24T08:05:56.200Z,32.00
2018-08-24T08:08:25.409Z,32.40
2018-08-24T08:10:53.608Z,32.70
2018-08-24T08:13:22.132Z,32.30
2018-08-24T08:15:50.302Z,31.90
2018-08-24T08:18:18.639Z,32.10
2018-08-24T08:20:46.839Z,30.80
2018-08-24T08:23:15.049Z,29.60
2018-08-24T08:25:45.266Z,28.70
2018-08-24T08:28:13.471Z,28.50
2018-08-24T08:30:42.413Z,29.20
2018-08-24T08:33:10.963Z,29.70
2018-08-24T08:35:41.975Z,29.80
2018-08-24T08:38:11.082Z,30.40
2018-08-24T08:40:39.440Z,29.90
2018-08-24T08:43:13.204Z,28.60
2018-08-24T08:45:41.670Z,27.50
2018-08-24T08:48:10.748Z,27.00
2018-08-24T08:50:39.042Z,27.50
2018-08-24T08:53:07.412Z,28.10
2018-08-24T09:05:40.302Z,26.30
2018-08-24T09:08:08.483Z,25.30
2018-08-24T09:10:36.656Z,25.30
2018-08-24T09:13:07.918Z,25.20
2018-08-24T09:15:36.133Z,24.80
2018-08-24T09:18:23.631Z,24.70
2018-08-24T09:21:10.832Z,24.80
2018-08-24T09:23:59.390Z,24.90
2018-08-24T09:27:03.187Z,24.90
2018-08-24T09:29:31.525Z,25.00
2018-08-24T09:32:02.621Z,25.40
2018-08-24T09:34:32.430Z,25.60
2018-08-24T09:36:59.527Z,25.70
2018-08-24T09:39:32.151Z,26.20
2018-08-24T09:42:01.065Z,26.30
2018-08-24T09:44:29.509Z,26.40
2018-08-24T09:47:15.433Z,27.60
2018-08-24T09:49:43.686Z,28.80
2018-08-24T09:53:06.127Z,28.90
2018-08-24T09:55:40.189Z,28.50
2018-08-24T09:58:10.059Z,28.30
2018-08-24T10:00:57.561Z,27.50
2018-08-24T10:03:43.559Z,26.90
2018-08-24T10:06:32.719Z,27.50
2018-08-24T10:09:06.587Z,27.40
2018-08-24T10:11:33.751Z,27.30
2018-08-24T10:14:02.127Z,27.40
2018-08-24T10:16:30.479Z,27.70
2018-08-24T10:18:58.702Z,27.60
2018-08-24T10:21:31.896Z,27.10
2018-08-24T10:23:59.203Z,26.70
2018-08-24T10:26:28.220Z,26.00
2018-08-24T10:28:56.450Z,25.50
2018-08-24T10:31:25.801Z,25.30
2018-08-24T10:33:58.070Z,25.40
2018-08-24T10:36:37.139Z,25.60
2018-08-24T10:39:08.972Z,26.10
2018-08-24T10:41:38.391Z,26.50
2018-08-24T10:44:06.676Z,27.00
2018-08-24T10:46:34.949Z,27.20
2018-08-24T10:49:03.312Z,27.00
2018-08-24T10:51:31.666Z,27.20
2018-08-24T10:54:05.066Z,27.70
2018-08-24T10:56:36.166Z,28.50
2018-08-24T10:59:04.429Z,28.50
2018-08-24T11:01:34.464Z,27.80
2018-08-24T11:04:09.765Z,27.10
2018-08-24T11:06:41.324Z,26.50
2018-08-24T11:09:10.316Z,26.40
2018-08-24T11:11:40.860Z,26.50
2018-08-24T11:14:11.684Z,27.30
2018-08-24T11:16:41.207Z,28.10
2018-08-24T11:19:09.350Z,27.80
2018-08-24T11:21:38.480Z,27.00
2018-08-24T11:24:08.080Z,26.50
2018-08-24T11:26:36.498Z,26.10
2018-08-24T11:29:05.212Z,25.20
2018-08-24T11:31:33.458Z,24.70
2018-08-24T11:34:01.757Z,24.20
2018-08-24T11:36:33.500Z,23.90
2018-08-24T11:39:05.914Z,24.00
2018-08-24T11:41:36.352Z,24.00
2018-08-24T11:44:07.435Z,23.90
2018-08-24T11:46:38.980Z,23.90
2018-08-24T11:49:07.476Z,23.60
2018-08-24T11:51:36.258Z,23.60
2018-08-24T11:54:04.987Z,23.30
2018-08-24T11:56:33.838Z,23.10
2018-08-24T11:59:09.944Z,23.10
2018-08-24T12:01:38.117Z,23.10
2018-08-24T12:04:06.662Z,23.10
2018-08-24T12:06:34.939Z,23.10
2018-08-24T12:09:06.251Z,22.80
2018-08-24T12:11:39.117Z,22.60
2018-08-24T12:14:09.084Z,22.40
2018-08-24T12:16:37.257Z,22.50
2018-08-24T12:19:05.418Z,22.30
2018-08-24T12:21:36.231Z,22.40
2018-08-24T12:24:05.632Z,22.40
2018-08-24T12:26:34.430Z,22.40
2018-08-24T12:29:03.569Z,22.30
2018-08-24T12:31:34.682Z,22.20
2018-08-24T12:34:26.741Z,22.10
2018-08-24T12:36:55.050Z,22.10
2018-08-24T12:39:30.250Z,22.80
2018-08-24T12:42:03.781Z,24.30
2018-08-24T12:44:31.603Z,25.50
2018-08-24T12:47:01.398Z,26.20
2018-08-24T12:49:30.505Z,26.10
2018-08-24T12:52:01.272Z,24.80
2018-08-24T12:54:27.991Z,24.40
2018-08-24T12:56:57.433Z,24.30
2018-08-24T12:59:29.892Z,24.00
2018-08-24T13:01:58.516Z,24.40
2018-08-24T13:04:30.283Z,24.40
2018-08-24T13:06:58.631Z,24.30
2018-08-24T13:09:33.760Z,23.80
2018-08-24T13:11:57.835Z,23.60
2018-08-24T13:14:27.591Z,23.90
2018-08-24T13:16:55.830Z,24.30
2018-08-24T13:19:24.057Z,24.20
2018-08-24T13:22:06.477Z,24.30
2018-08-24T13:24:34.762Z,24.40
2018-08-24T13:27:03.394Z,24.80
2018-08-24T13:29:31.766Z,25.10
2018-08-24T13:32:02.858Z,24.90
2018-08-24T13:34:31.599Z,24.80
2018-08-24T13:37:00.915Z,24.70
2018-08-24T13:39:31.151Z,24.10
2018-08-24T13:42:00.960Z,23.70
2018-08-24T13:44:29.372Z,23.60
2018-08-24T13:46:58.333Z,23.80
2018-08-24T13:49:27.069Z,23.90
2018-08-24T13:51:55.434Z,24.30
2018-08-24T13:54:23.848Z,24.50
2018-08-24T13:56:53.961Z,24.10
2018-08-24T13:59:27.961Z,23.60
2018-08-24T14:01:57.206Z,23.50
2018-08-24T14:04:25.417Z,24.10
2018-08-24T14:06:53.554Z,24.50
2018-08-24T14:09:24.257Z,24.10
2018-08-24T14:11:54.959Z,24.00
2018-08-24T14:14:23.645Z,24.20
2018-08-24T14:16:51.809Z,24.50
2018-08-24T14:19:21.870Z,24.40
2018-08-24T14:21:50.323Z,24.90
2018-08-24T14:24:21.684Z,24.70
2018-08-24T14:26:51.230Z,24.40
2018-08-24T14:29:19.953Z,24.80
2018-08-24T14:31:50.904Z,24.80
2018-08-24T14:34:19.029Z,24.90
2018-08-24T14:36:51.470Z,25.00
2018-08-24T14:39:20.977Z,25.10
2018-08-24T14:41:52.033Z,25.20
2018-08-24T14:44:25.917Z,24.80
2018-08-24T14:46:59.547Z,24.20
2018-08-24T14:49:30.898Z,24.30
2018-08-24T14:52:19.678Z,24.40
2018-08-24T14:54:49.151Z,24.70
2018-08-24T14:57:22.423Z,24.90
2018-08-24T14:59:51.616Z,25.00
2018-08-24T15:02:21.463Z,24.80
2018-08-24T15:04:51.524Z,24.70
2018-08-24T15:07:35.630Z,24.60
2018-08-24T15:10:14.376Z,24.70
2018-08-24T15:12:46.251Z,24.80
2018-08-24T15:15:15.609Z,24.50
2018-08-24T15:17:45.779Z,24.40
2018-08-24T15:20:19.634Z,24.10
2018-08-24T15:22:50.331Z,24.00
2018-08-24T15:25:26.430Z,23.80
2018-08-24T15:27:54.856Z,23.60
2018-08-24T15:30:26.692Z,23.60
2018-08-24T15:33:00.332Z,23.80
2018-08-24T15:35:29.678Z,23.80
2018-08-24T15:37:58.375Z,23.70
2018-08-24T15:40:26.590Z,23.70
2018-08-24T15:42:55.807Z,23.80
2018-08-24T15:45:24.295Z,23.90
2018-08-24T15:47:53.487Z,24.20
2018-08-24T15:50:23.848Z,23.90
2018-08-24T15:52:52.287Z,23.80
2018-08-24T15:55:21.648Z,24.00
2018-08-24T15:57:50.785Z,24.00
2018-08-24T16:00:20.725Z,23.60
2018-08-24T16:02:49.690Z,23.50
2018-08-24T16:05:17.913Z,23.50
2018-08-24T16:07:46.952Z,23.60
2018-08-24T16:10:17.561Z,23.50
2018-08-24T16:12:45.993Z,23.60
2018-08-24T16:15:18.184Z,23.60
2018-08-24T16:18:04.452Z,23.70
2018-08-24T16:20:32.779Z,23.60
2018-08-24T16:23:01.521Z,23.50
2018-08-24T16:25:29.878Z,23.40
2018-08-24T16:27:58.191Z,23.40
2018-08-24T16:30:26.356Z,23.20
2018-08-24T16:32:54.624Z,23.20
2018-08-24T16:35:33.653Z,23.20
2018-08-24T16:38:01.926Z,23.20
2018-08-24T16:40:30.449Z,23.10
2018-08-24T16:42:58.999Z,23.00
2018-08-24T16:45:29.801Z,23.00
2018-08-24T16:47:58.550Z,22.80
2018-08-24T16:50:27.988Z,22.70
2018-08-24T16:52:57.305Z,22.50
2018-08-24T16:55:25.462Z,22.40
2018-08-24T16:57:55.087Z,22.00
2018-08-24T17:00:24.161Z,22.10
2018-08-24T17:02:53.155Z,22.10
2018-08-24T17:05:22.765Z,21.80
2018-08-24T17:07:52.032Z,21.70
2018-08-24T17:10:21.436Z,21.60
2018-08-24T17:12:51.413Z,21.60
2018-08-24T17:15:21.606Z,21.50
2018-08-24T17:17:51.568Z,21.30
2018-08-24T17:20:20.080Z,21.30
2018-08-24T17:22:50.599Z,21.30
2018-08-24T17:25:18.748Z,21.30
2018-08-24T17:27:48.500Z,21.20
2018-08-24T17:30:36.477Z,21.10
2018-08-24T17:33:04.664Z,21.10
2018-08-24T17:35:39.315Z,21.00
2018-08-24T17:38:12.409Z,21.10
2018-08-24T17:40:52.933Z,21.10
2018-08-24T17:43:25.696Z,21.10
2018-08-24T17:45:57.659Z,21.00
2018-08-24T17:49:05.410Z,20.90
2018-08-24T17:51:35.232Z,20.90
2018-08-24T17:54:04.572Z,20.90
2018-08-24T17:56:33.198Z,20.90
2018-08-24T18:01:36.465Z,21.00
2018-08-24T18:04:08.721Z,21.10
2018-08-24T18:06:35.783Z,21.10
2018-08-24T18:09:06.711Z,20.90
2018-08-24T18:11:44.563Z,20.90
2018-08-24T18:14:21.671Z,20.70
2018-08-24T18:16:52.466Z,20.70
2018-08-24T18:19:23.255Z,20.60
2018-08-24T18:21:53.576Z,20.50
2018-08-24T18:24:21.884Z,20.40
2018-08-24T18:26:54.503Z,20.40
2018-08-24T18:29:36.322Z,20.40
2018-08-24T18:32:00.083Z,20.40
2018-08-24T18:34:29.007Z,20.30
2018-08-24T18:36:57.176Z,20.30
2018-08-24T18:39:25.665Z,20.30
2018-08-24T18:41:54.181Z,20.30
2018-08-24T18:44:22.747Z,20.10
2018-08-24T18:46:52.837Z,20.10
2018-08-24T18:49:21.057Z,20.10
2018-08-24T18:51:52.811Z,20.00
2018-08-24T18:54:28.792Z,20.00
2018-08-24T18:56:59.764Z,20.00
2018-08-24T18:59:27.816Z,19.90
2018-08-24T19:01:56.096Z,20.00
2018-08-24T19:04:24.212Z,19.90
2018-08-24T19:06:52.474Z,19.90
2018-08-24T19:09:20.597Z,19.90
2018-08-24T19:12:06.504Z,19.90
2018-08-24T19:14:34.656Z,19.90
2018-08-24T19:17:02.841Z,19.90
2018-08-24T19:19:48.676Z,19.80
2018-08-24T19:22:17.158Z,19.70
2018-08-24T19:24:45.358Z,19.60
2018-08-24T19:27:13.948Z,19.60
2018-08-24T19:29:59.841Z,19.60
2018-08-24T19:32:28.077Z,19.50
2018-08-24T19:34:56.420Z,19.40
2018-08-24T19:37:24.657Z,19.30
2018-08-24T19:40:15.618Z,19.30
2018-08-24T19:42:43.813Z,19.30
2018-08-24T19:45:11.970Z,19.20
2018-08-24T19:47:58.748Z,19.30
2018-08-24T19:50:28.307Z,19.40
2018-08-24T19:52:57.170Z,19.30
2018-08-24T19:55:26.670Z,19.30
2018-08-24T19:58:12.462Z,19.20
2018-08-24T20:00:40.847Z,19.20
2018-08-24T20:03:09.659Z,19.10
2018-08-24T20:05:38.134Z,19.00
2018-08-24T20:08:23.965Z,19.10
2018-08-24T20:10:52.404Z,19.00
2018-08-24T20:13:20.749Z,18.90
2018-08-24T20:16:07.850Z,18.90
2018-08-24T20:18:36.336Z,18.80
2018-08-24T20:21:04.710Z,18.80
2018-08-24T20:23:32.914Z,18.70
2018-08-24T20:26:01.100Z,18.60
2018-08-24T20:28:29.379Z,18.50
2018-08-24T20:30:57.946Z,18.50
2018-08-24T20:33:26.096Z,18.50
2018-08-24T20:35:54.313Z,18.50
2018-08-24T20:38:22.463Z,18.50
2018-08-24T20:40:50.736Z,18.50
2018-08-24T20:43:18.870Z,18.40
2018-08-24T20:45:47.112Z,18.40
2018-08-24T20:48:15.322Z,18.40
2018-08-24T20:50:43.776Z,18.50
2018-08-24T20:53:12.024Z,18.50
2018-08-24T20:55:40.845Z,18.50
2018-08-24T20:58:09.037Z,18.40
2018-08-24T21:00:37.165Z,18.40
2018-08-24T21:03:05.449Z,18.40
2018-08-24T21:05:33.657Z,18.40
2018-08-24T21:08:01.950Z,18.40
2018-08-24T21:10:31.917Z,18.40
2018-08-24T21:13:00.156Z,18.30
2018-08-24T21:15:28.308Z,18.30
2018-08-24T21:17:56.508Z,18.30
2018-08-24T21:20:24.813Z,18.20
2018-08-24T21:22:53.169Z,18.20
2018-08-24T21:25:21.372Z,18.20
2018-08-24T21:27:49.789Z,18.10
2018-08-24T21:30:18.117Z,18.10
2018-08-24T21:32:46.288Z,18.10
2018-08-24T21:35:14.443Z,18.00
2018-08-24T21:37:42.580Z,18.00
2018-08-24T21:40:10.719Z,18.00
2018-08-24T21:42:38.856Z,18.00
2018-08-24T21:45:06.994Z,18.00
2018-08-24T21:47:35.137Z,18.10
2018-08-24T21:50:03.352Z,18.10
2018-08-24T21:52:31.519Z,18.00
2018-08-24T21:54:59.634Z,18.00
2018-08-24T21:57:28.878Z,18.00
2018-08-24T21:59:57.230Z,17.90
2018-08-24T22:02:25.442Z,17.80
2018-08-24T22:04:53.578Z,17.80
2018-08-24T22:07:21.723Z,17.80
2018-08-24T22:09:51.337Z,17.80
2018-08-24T22:12:19.484Z,17.90
2018-08-24T22:14:47.918Z,17.90
2018-08-24T22:17:16.067Z,17.90
2018-08-24T22:19:44.265Z,17.90
2018-08-24T22:22:12.405Z,17.80
2018-08-24T22:24:41.005Z,17.90
2018-08-24T22:27:09.122Z,17.90
2018-08-24T22:29:37.257Z,17.90
2018-08-24T22:32:07.148Z,17.80
2018-08-24T22:34:37.589Z,17.80
2018-08-24T22:37:05.726Z,17.70
2018-08-24T22:39:33.953Z,17.70
2018-08-24T22:42:02.242Z,17.70
2018-08-24T22:44:30.521Z,17.70
2018-08-24T22:46:58.951Z,17.70
2018-08-24T22:49:27.076Z,17.70
2018-08-24T22:51:55.184Z,17.70
2018-08-24T22:54:23.320Z,17.70
2018-08-24T22:56:52.901Z,17.70
2018-08-24T22:59:21.286Z,17.60
2018-08-24T23:01:49.418Z,17.60
2018-08-24T23:04:17.551Z,17.50
2018-08-24T23:06:45.701Z,17.50
2018-08-24T23:09:13.843Z,17.40
2018-08-24T23:11:41.975Z,17.40
2018-08-24T23:14:10.163Z,17.40
2018-08-24T23:16:38.401Z,17.30
2018-08-24T23:19:09.520Z,17.30
2018-08-24T23:21:37.917Z,17.30
2018-08-24T23:24:06.045Z,17.30
2018-08-24T23:26:34.193Z,17.30
2018-08-24T23:29:02.335Z,17.30
2018-08-24T23:31:30.493Z,17.30
2018-08-24T23:33:58.640Z,17.30
2018-08-24T23:36:26.773Z,17.20
2018-08-24T23:38:54.962Z,17.20
2018-08-24T23:41:23.395Z,17.20
2018-08-24T23:43:52.700Z,17.10
2018-08-24T23:46:21.084Z,17.10
2018-08-24T23:48:49.225Z,17.10
2018-08-24T23:51:17.365Z,17.00
2018-08-24T23:53:45.546Z,16.90
2018-08-24T23:56:13.696Z,16.80
2018-08-24T23:58:41.827Z,16.80
